PWSweather.com
Personal Weather Stations
Station Observations
KOHAVON11
Long Road Station, Avon, OH 44011

Long Road StationAvon, OH 44011

Lat: 41.437, Lon: -82.0477

Elevation: 686

Station Type: Davis Vantage Pro2

http://www.avon-weather.com

High Low Average
Temperature 89.8°F32.1°F 64.5°F18.1°F 77.2°F25.1°F
Dew Point 72.0°F22.2°F 55.5°F13.1°F 62.0°F16.7°F
Winds 23.0 mph S37.0 mph S Calm Calm 4.1 mph 6.6 mph
Wind Gusts 27.0 mph43.5 mph -- 11.0 mph17.7 mph
Humidity 82% 46% 62%
Pressure 29.89 in1012.20 in 29.69 in1005.40 in -
Precipitation 0.00 in0.00 in - -
Hour Temp Dew Point Humidity Winds Wind Gusts Pressure Precip Precip Rate Daily Precip Total
12:02 AM 65.6°F18.7°C 56.5°F13.6°C 73% Calm Calm -- 29.87 in1011.5 mb 0.00 in0.0 mm 0.00 in0.0 mm 0.00 in0.0 mm
12:07 AM 65.8°F18.8°C 56.7°F13.7°C 73% Calm Calm -- 29.87 in1011.5 mb 0.00 in0.0 mm 0.00 in0.0 mm 0.00 in0.0 mm
12:12 AM 65.9°F18.8°C 56.4°F13.6°C 72% Calm Calm -- 29.87 in1011.5 mb 0.00 in0.0 mm 0.00 in0.0 mm 0.00 in0.0 mm
12:17 AM 66.0°F18.9°C 56.5°F13.6°C 72% Calm Calm -- 29.87 in1011.5 mb 0.00 in0.0 mm 0.00 in0.0 mm 0.00 in0.0 mm
12:22 AM 66.1°F18.9°C 57.0°F13.9°C 73% Calm Calm -- 29.87 in1011.5 mb 0.00 in0.0 mm 0.00 in0.0 mm 0.00 in0.0 mm
12:27 AM 66.0°F18.9°C 56.5°F13.6°C 72% Calm Calm -- 29.87 in1011.5 mb 0.00 in0.0 mm 0.00 in0.0 mm 0.00 in0.0 mm
12:32 AM 66.0°F18.9°C 56.5°F13.6°C 72% Calm Calm -- 29.87 in1011.5 mb 0.00 in0.0 mm 0.00 in0.0 mm 0.00 in0.0 mm
12:37 AM 65.9°F18.8°C 56.0°F13.3°C 71% Calm Calm -- 29.87 in1011.5 mb 0.00 in0.0 mm 0.00 in0.0 mm 0.00 in0.0 mm
12:42 AM 65.8°F18.8°C 55.5°F13.1°C 70% Calm Calm -- 29.87 in1011.5 mb 0.00 in0.0 mm 0.00 in0.0 mm 0.00 in0.0 mm
12:47 AM 65.9°F18.8°C 56.0°F13.3°C 71% Calm Calm -- 29.88 in1011.9 mb 0.00 in0.0 mm 0.00 in0.0 mm 0.00 in0.0 mm
12:52 AM 65.9°F18.8°C 56.0°F13.3°C 71% Calm Calm -- 29.88 in1011.9 mb 0.00 in0.0 mm 0.00 in0.0 mm 0.00 in0.0 mm
12:57 AM 65.9°F18.8°C 56.0°F13.3°C 71% Calm Calm -- 29.88 in1011.9 mb 0.00 in0.0 mm 0.00 in0.0 mm 0.00 in0.0 mm
01:02 AM 65.9°F18.8°C 56.0°F13.3°C 71% Calm Calm -- 29.88 in1011.9 mb 0.00 in0.0 mm 0.00 in0.0 mm 0.00 in0.0 mm
01:07 AM 65.8°F18.8°C 55.9°F13.3°C 71% Calm Calm -- 29.88 in1011.9 mb 0.00 in0.0 mm 0.00 in0.0 mm 0.00 in0.0 mm
01:12 AM 65.7°F18.7°C 55.8°F13.2°C 71% Calm Calm -- 29.88 in1011.9 mb 0.00 in0.0 mm 0.00 in0.0 mm 0.00 in0.0 mm
01:17 AM 65.7°F18.7°C 56.2°F13.4°C 72% Calm Calm -- 29.88 in1011.9 mb 0.00 in0.0 mm 0.00 in0.0 mm 0.00 in0.0 mm
01:22 AM 65.6°F18.7°C 56.1°F13.4°C 72% Calm Calm -- 29.87 in1011.5 mb 0.00 in0.0 mm 0.00 in0.0 mm 0.00 in0.0 mm
01:27 AM 65.6°F18.7°C 56.1°F13.4°C 72% Calm Calm -- 29.87 in1011.5 mb 0.00 in0.0 mm 0.00 in0.0 mm 0.00 in0.0 mm
01:32 AM 65.6°F18.7°C 56.1°F13.4°C 72% Calm Calm -- 29.87 in1011.5 mb 0.00 in0.0 mm 0.00 in0.0 mm 0.00 in0.0 mm
01:37 AM 65.6°F18.7°C 56.5°F13.6°C 73% Calm Calm -- 29.87 in1011.5 mb 0.00 in0.0 mm 0.00 in0.0 mm 0.00 in0.0 mm
01:42 AM 65.6°F18.7°C 56.5°F13.6°C 73% Calm Calm -- 29.87 in1011.5 mb 0.00 in0.0 mm 0.00 in0.0 mm 0.00 in0.0 mm
01:47 AM 65.6°F18.7°C 56.5°F13.6°C 73% Calm Calm -- 29.87 in1011.5 mb 0.00 in0.0 mm 0.00 in0.0 mm 0.00 in0.0 mm
01:52 AM 65.6°F18.7°C 56.5°F13.6°C 73% Calm Calm -- 29.87 in1011.5 mb 0.00 in0.0 mm 0.00 in0.0 mm 0.00 in0.0 mm
01:57 AM 65.7°F18.7°C 57.0°F13.9°C 74% Calm Calm 2.0 mph3.2 kmh 29.87 in1011.5 mb 0.00 in0.0 mm 0.00 in0.0 mm 0.00 in0.0 mm
02:02 AM 65.7°F18.7°C 56.6°F13.7°C 73% Calm Calm 3.0 mph4.8 kmh 29.87 in1011.5 mb 0.00 in0.0 mm 0.00 in0.0 mm 0.00 in0.0 mm
02:07 AM 65.8°F18.8°C 56.7°F13.7°C 73% Calm Calm 2.0 mph3.2 kmh 29.87 in1011.5 mb 0.00 in0.0 mm 0.00 in0.0 mm 0.00 in0.0 mm
02:12 AM 65.9°F18.8°C 56.8°F13.8°C 73% 1.0 mph S1.6 kmh S 1.0 mph1.6 kmh 29.87 in1011.5 mb 0.00 in0.0 mm 0.00 in0.0 mm 0.00 in0.0 mm
02:17 AM 65.9°F18.8°C 56.4°F13.6°C 72% Calm Calm -- 29.87 in1011.5 mb 0.00 in0.0 mm 0.00 in0.0 mm 0.00 in0.0 mm
02:22 AM 66.0°F18.9°C 56.5°F13.6°C 72% Calm Calm 1.0 mph1.6 kmh 29.87 in1011.5 mb 0.00 in0.0 mm 0.00 in0.0 mm 0.00 in0.0 mm
02:27 AM 66.1°F18.9°C 56.2°F13.4°C 71% 2.0 mph SW3.2 kmh SW 2.0 mph3.2 kmh 29.87 in1011.5 mb 0.00 in0.0 mm 0.00 in0.0 mm 0.00 in0.0 mm
02:32 AM 66.2°F19.0°C 55.9°F13.3°C 70% Calm Calm 3.0 mph4.8 kmh 29.87 in1011.5 mb 0.00 in0.0 mm 0.00 in0.0 mm 0.00 in0.0 mm
02:37 AM 66.4°F19.1°C 56.1°F13.4°C 70% Calm Calm 2.0 mph3.2 kmh 29.87 in1011.5 mb 0.00 in0.0 mm 0.00 in0.0 mm 0.00 in0.0 mm
02:42 AM 66.6°F19.2°C 55.9°F13.3°C 69% Calm Calm 3.0 mph4.8 kmh 29.87 in1011.5 mb 0.00 in0.0 mm 0.00 in0.0 mm 0.00 in0.0 mm
02:47 AM 66.8°F19.3°C 56.1°F13.4°C 69% Calm Calm 1.0 mph1.6 kmh 29.87 in1011.5 mb 0.00 in0.0 mm 0.00 in0.0 mm 0.00 in0.0 mm
02:52 AM 66.9°F19.4°C 56.1°F13.4°C 69% Calm Calm 1.0 mph1.6 kmh 29.87 in1011.5 mb 0.00 in0.0 mm 0.00 in0.0 mm 0.00 in0.0 mm
02:57 AM 67.0°F19.4°C 55.8°F13.2°C 68% Calm Calm 1.0 mph1.6 kmh 29.87 in1011.5 mb 0.00 in0.0 mm 0.00 in0.0 mm 0.00 in0.0 mm
03:02 AM 67.1°F19.5°C 55.9°F13.3°C 68% Calm Calm 2.0 mph3.2 kmh 29.87 in1011.5 mb 0.00 in0.0 mm 0.00 in0.0 mm 0.00 in0.0 mm
03:07 AM 67.1°F19.5°C 55.9°F13.3°C 68% Calm Calm 1.0 mph1.6 kmh 29.88 in1011.9 mb 0.00 in0.0 mm 0.00 in0.0 mm 0.00 in0.0 mm
03:12 AM 67.2°F19.6°C 56.0°F13.3°C 68% Calm Calm -- 29.88 in1011.9 mb 0.00 in0.0 mm 0.00 in0.0 mm 0.00 in0.0 mm
03:17 AM 67.2°F19.6°C 56.0°F13.3°C 68% Calm Calm -- 29.88 in1011.9 mb 0.00 in0.0 mm 0.00 in0.0 mm 0.00 in0.0 mm
03:22 AM 67.3°F19.6°C 55.7°F13.2°C 67% Calm Calm -- 29.87 in1011.5 mb 0.00 in0.0 mm 0.00 in0.0 mm 0.00 in0.0 mm
03:27 AM 67.4°F19.7°C 55.8°F13.2°C 67% Calm Calm 1.0 mph1.6 kmh 29.87 in1011.5 mb 0.00 in0.0 mm 0.00 in0.0 mm 0.00 in0.0 mm
03:32 AM 67.4°F19.7°C 55.8°F13.2°C 67% Calm Calm 1.0 mph1.6 kmh 29.87 in1011.5 mb 0.00 in0.0 mm 0.00 in0.0 mm 0.00 in0.0 mm
03:37 AM 67.5°F19.7°C 55.9°F13.3°C 67% Calm Calm -- 29.87 in1011.5 mb 0.00 in0.0 mm 0.00 in0.0 mm 0.00 in0.0 mm
03:42 AM 67.5°F19.7°C 55.9°F13.3°C 67% Calm Calm -- 29.87 in1011.5 mb 0.00 in0.0 mm 0.00 in0.0 mm 0.00 in0.0 mm
03:47 AM 67.5°F19.7°C 56.3°F13.5°C 68% Calm Calm -- 29.87 in1011.5 mb 0.00 in0.0 mm 0.00 in0.0 mm 0.00 in0.0 mm
03:52 AM 67.5°F19.7°C 56.3°F13.5°C 68% Calm Calm -- 29.87 in1011.5 mb 0.00 in0.0 mm 0.00 in0.0 mm 0.00 in0.0 mm
03:57 AM 67.4°F19.7°C 56.2°F13.4°C 68% 5.0 mph S8.0 kmh S 5.0 mph8.0 kmh 29.87 in1011.5 mb 0.00 in0.0 mm 0.00 in0.0 mm 0.00 in0.0 mm
04:02 AM 67.4°F19.7°C 56.2°F13.4°C 68% Calm Calm 5.0 mph8.0 kmh 29.87 in1011.5 mb 0.00 in0.0 mm 0.00 in0.0 mm 0.00 in0.0 mm
04:07 AM 67.3°F19.6°C 56.1°F13.4°C 68% Calm Calm -- 29.87 in1011.5 mb 0.00 in0.0 mm 0.00 in0.0 mm 0.00 in0.0 mm
04:12 AM 67.2°F19.6°C 56.0°F13.3°C 68% Calm Calm -- 29.87 in1011.5 mb 0.00 in0.0 mm 0.00 in0.0 mm 0.00 in0.0 mm
04:17 AM 67.2°F19.6°C 56.4°F13.6°C 69% Calm Calm -- 29.86 in1011.2 mb 0.00 in0.0 mm 0.00 in0.0 mm 0.00 in0.0 mm
04:22 AM 67.1°F19.5°C 56.3°F13.5°C 69% Calm Calm -- 29.87 in1011.5 mb 0.00 in0.0 mm 0.00 in0.0 mm 0.00 in0.0 mm
04:27 AM 67.1°F19.5°C 56.3°F13.5°C 69% 1.0 mph SSW1.6 kmh SSW 3.0 mph4.8 kmh 29.87 in1011.5 mb 0.00 in0.0 mm 0.00 in0.0 mm 0.00 in0.0 mm
04:32 AM 67.0°F19.4°C 56.7°F13.7°C 70% Calm Calm 4.0 mph6.4 kmh 29.86 in1011.2 mb 0.00 in0.0 mm 0.00 in0.0 mm 0.00 in0.0 mm
04:37 AM 67.0°F19.4°C 56.7°F13.7°C 70% 2.0 mph S3.2 kmh S 5.0 mph8.0 kmh 29.86 in1011.2 mb 0.00 in0.0 mm 0.00 in0.0 mm 0.00 in0.0 mm
04:42 AM 66.9°F19.4°C 56.6°F13.7°C 70% Calm Calm 5.0 mph8.0 kmh 29.86 in1011.2 mb 0.00 in0.0 mm 0.00 in0.0 mm 0.00 in0.0 mm
04:47 AM 66.9°F19.4°C 56.6°F13.7°C 70% Calm Calm -- 29.87 in1011.5 mb 0.00 in0.0 mm 0.00 in0.0 mm 0.00 in0.0 mm
04:52 AM 66.8°F19.3°C 56.5°F13.6°C 70% Calm Calm 2.0 mph3.2 kmh 29.86 in1011.2 mb 0.00 in0.0 mm 0.00 in0.0 mm 0.00 in0.0 mm
04:57 AM 66.8°F19.3°C 56.5°F13.6°C 70% Calm Calm 3.0 mph4.8 kmh 29.86 in1011.2 mb 0.00 in0.0 mm 0.00 in0.0 mm 0.00 in0.0 mm
05:02 AM 66.7°F19.3°C 56.4°F13.6°C 70% Calm Calm 6.0 mph9.7 kmh 29.86 in1011.2 mb 0.00 in0.0 mm 0.00 in0.0 mm 0.00 in0.0 mm
05:07 AM 66.6°F19.2°C 56.7°F13.7°C 71% Calm Calm 3.0 mph4.8 kmh 29.86 in1011.2 mb 0.00 in0.0 mm 0.00 in0.0 mm 0.00 in0.0 mm
05:12 AM 66.6°F19.2°C 56.7°F13.7°C 71% Calm Calm 4.0 mph6.4 kmh 29.86 in1011.2 mb 0.00 in0.0 mm 0.00 in0.0 mm 0.00 in0.0 mm
05:17 AM 66.5°F19.2°C 56.6°F13.7°C 71% Calm Calm 4.0 mph6.4 kmh 29.86 in1011.2 mb 0.00 in0.0 mm 0.00 in0.0 mm 0.00 in0.0 mm
05:22 AM 66.4°F19.1°C 56.9°F13.8°C 72% Calm Calm 4.0 mph6.4 kmh 29.86 in1011.2 mb 0.00 in0.0 mm 0.00 in0.0 mm 0.00 in0.0 mm
05:27 AM 66.2°F19.0°C 57.1°F13.9°C 73% Calm Calm 1.0 mph1.6 kmh 29.86 in1011.2 mb 0.00 in0.0 mm 0.00 in0.0 mm 0.00 in0.0 mm
05:32 AM 66.1°F18.9°C 57.0°F13.9°C 73% Calm Calm 4.0 mph6.4 kmh 29.86 in1011.2 mb 0.00 in0.0 mm 0.00 in0.0 mm 0.00 in0.0 mm
05:37 AM 65.9°F18.8°C 57.2°F14.0°C 74% Calm Calm 4.0 mph6.4 kmh 29.86 in1011.2 mb 0.00 in0.0 mm 0.00 in0.0 mm 0.00 in0.0 mm
05:42 AM 65.8°F18.8°C 57.1°F13.9°C 74% 5.0 mph S8.0 kmh S 6.0 mph9.7 kmh 29.86 in1011.2 mb 0.00 in0.0 mm 0.00 in0.0 mm 0.00 in0.0 mm
05:47 AM 65.7°F18.7°C 57.4°F14.1°C 75% Calm Calm 6.0 mph9.7 kmh 29.86 in1011.2 mb 0.00 in0.0 mm 0.00 in0.0 mm 0.00 in0.0 mm
05:52 AM 65.7°F18.7°C 57.8°F14.3°C 76% Calm Calm 3.0 mph4.8 kmh 29.86 in1011.2 mb 0.00 in0.0 mm 0.00 in0.0 mm 0.00 in0.0 mm
05:57 AM 65.6°F18.7°C 57.7°F14.3°C 76% Calm Calm -- 29.86 in1011.2 mb 0.00 in0.0 mm 0.00 in0.0 mm 0.00 in0.0 mm
06:02 AM 65.5°F18.6°C 57.6°F14.2°C 76% Calm Calm 1.0 mph1.6 kmh 29.86 in1011.2 mb 0.00 in0.0 mm 0.00 in0.0 mm 0.00 in0.0 mm
06:07 AM 65.4°F18.6°C 57.5°F14.2°C 76% Calm Calm -- 29.86 in1011.2 mb 0.00 in0.0 mm 0.00 in0.0 mm 0.00 in0.0 mm
06:12 AM 65.3°F18.5°C 57.4°F14.1°C 76% 1.0 mph SW1.6 kmh SW 4.0 mph6.4 kmh 29.86 in1011.2 mb 0.00 in0.0 mm 0.00 in0.0 mm 0.00 in0.0 mm
06:17 AM 65.2°F18.4°C 57.6°F14.2°C 77% Calm Calm 1.0 mph1.6 kmh 29.86 in1011.2 mb 0.00 in0.0 mm 0.00 in0.0 mm 0.00 in0.0 mm
06:22 AM 65.1°F18.4°C 57.6°F14.2°C 77% Calm Calm -- 29.86 in1011.2 mb 0.00 in0.0 mm 0.00 in0.0 mm 0.00 in0.0 mm
06:27 AM 65.0°F18.3°C 57.8°F14.3°C 78% Calm Calm 2.0 mph3.2 kmh 29.86 in1011.2 mb 0.00 in0.0 mm 0.00 in0.0 mm 0.00 in0.0 mm
06:32 AM 65.0°F18.3°C 57.8°F14.3°C 78% Calm Calm 3.0 mph4.8 kmh 29.86 in1011.2 mb 0.00 in0.0 mm 0.00 in0.0 mm 0.00 in0.0 mm
06:37 AM 64.9°F18.3°C 58.1°F14.5°C 79% Calm Calm 1.0 mph1.6 kmh 29.86 in1011.2 mb 0.00 in0.0 mm 0.00 in0.0 mm 0.00 in0.0 mm
06:42 AM 64.8°F18.2°C 58.0°F14.4°C 79% Calm Calm -- 29.86 in1011.2 mb 0.00 in0.0 mm 0.00 in0.0 mm 0.00 in0.0 mm
06:47 AM 64.7°F18.2°C 57.9°F14.4°C 79% Calm Calm 1.0 mph1.6 kmh 29.87 in1011.5 mb 0.00 in0.0 mm 0.00 in0.0 mm 0.00 in0.0 mm
06:52 AM 64.6°F18.1°C 58.2°F14.6°C 80% Calm Calm 6.0 mph9.7 kmh 29.87 in1011.5 mb 0.00 in0.0 mm 0.00 in0.0 mm 0.00 in0.0 mm
06:57 AM 64.6°F18.1°C 58.2°F14.6°C 80% Calm Calm 1.0 mph1.6 kmh 29.87 in1011.5 mb 0.00 in0.0 mm 0.00 in0.0 mm 0.00 in0.0 mm
07:02 AM 64.5°F18.1°C 58.1°F14.5°C 80% Calm Calm 1.0 mph1.6 kmh 29.87 in1011.5 mb 0.00 in0.0 mm 0.00 in0.0 mm 0.00 in0.0 mm
07:07 AM 64.5°F18.1°C 58.4°F14.7°C 81% 2.0 mph SSW3.2 kmh SSW 2.0 mph3.2 kmh 29.87 in1011.5 mb 0.00 in0.0 mm 0.00 in0.0 mm 0.00 in0.0 mm
07:12 AM 64.5°F18.1°C 58.4°F14.7°C 81% Calm Calm -- 29.87 in1011.5 mb 0.00 in0.0 mm 0.00 in0.0 mm 0.00 in0.0 mm
07:17 AM 64.6°F18.1°C 58.5°F14.7°C 81% Calm Calm 3.0 mph4.8 kmh 29.87 in1011.5 mb 0.00 in0.0 mm 0.00 in0.0 mm 0.00 in0.0 mm
07:22 AM 64.7°F18.2°C 58.6°F14.8°C 81% Calm Calm -- 29.87 in1011.5 mb 0.00 in0.0 mm 0.00 in0.0 mm 0.00 in0.0 mm
07:27 AM 64.8°F18.2°C 59.1°F15.1°C 82% Calm Calm -- 29.87 in1011.5 mb 0.00 in0.0 mm 0.00 in0.0 mm 0.00 in0.0 mm
07:32 AM 65.0°F18.3°C 59.3°F15.2°C 82% 1.0 mph SW1.6 kmh SW 3.0 mph4.8 kmh 29.87 in1011.5 mb 0.00 in0.0 mm 0.00 in0.0 mm 0.00 in0.0 mm
07:37 AM 65.3°F18.5°C 59.5°F15.3°C 82% Calm Calm 3.0 mph4.8 kmh 29.87 in1011.5 mb 0.00 in0.0 mm 0.00 in0.0 mm 0.00 in0.0 mm
07:42 AM 65.5°F18.6°C 59.7°F15.4°C 82% Calm Calm 4.0 mph6.4 kmh 29.87 in1011.5 mb 0.00 in0.0 mm 0.00 in0.0 mm 0.00 in0.0 mm
07:47 AM 65.9°F18.8°C 59.8°F15.4°C 81% 1.0 mph SW1.6 kmh SW 4.0 mph6.4 kmh 29.87 in1011.5 mb 0.00 in0.0 mm 0.00 in0.0 mm 0.00 in0.0 mm
07:52 AM 66.4°F19.1°C 60.3°F15.7°C 81% 1.0 mph WSW1.6 kmh WSW 6.0 mph9.7 kmh 29.87 in1011.5 mb 0.00 in0.0 mm 0.00 in0.0 mm 0.00 in0.0 mm
07:57 AM 66.9°F19.4°C 60.7°F15.9°C 81% 3.0 mph SW4.8 kmh SW 6.0 mph9.7 kmh 29.87 in1011.5 mb 0.00 in0.0 mm 0.00 in0.0 mm 0.00 in0.0 mm
08:02 AM 67.4°F19.7°C 60.9°F16.1°C 80% Calm Calm 5.0 mph8.0 kmh 29.87 in1011.5 mb 0.00 in0.0 mm 0.00 in0.0 mm 0.00 in0.0 mm
08:07 AM 68.0°F20.0°C 61.1°F16.2°C 79% Calm Calm 5.0 mph8.0 kmh 29.87 in1011.5 mb 0.00 in0.0 mm 0.00 in0.0 mm 0.00 in0.0 mm
08:12 AM 68.6°F20.3°C 61.7°F16.5°C 79% Calm Calm 5.0 mph8.0 kmh 29.87 in1011.5 mb 0.00 in0.0 mm 0.00 in0.0 mm 0.00 in0.0 mm
08:17 AM 69.2°F20.7°C 61.9°F16.6°C 78% 1.0 mph W1.6 kmh W 5.0 mph8.0 kmh 29.87 in1011.5 mb 0.00 in0.0 mm 0.00 in0.0 mm 0.00 in0.0 mm
08:22 AM 69.7°F20.9°C 62.4°F16.9°C 78% 1.0 mph WSW1.6 kmh WSW 6.0 mph9.7 kmh 29.87 in1011.5 mb 0.00 in0.0 mm 0.00 in0.0 mm 0.00 in0.0 mm
08:27 AM 70.3°F21.3°C 62.9°F17.2°C 78% 3.0 mph WSW4.8 kmh WSW 6.0 mph9.7 kmh 29.87 in1011.5 mb 0.00 in0.0 mm 0.00 in0.0 mm 0.00 in0.0 mm
08:32 AM 70.8°F21.6°C 62.3°F16.8°C 75% 1.0 mph SW1.6 kmh SW 6.0 mph9.7 kmh 29.87 in1011.5 mb 0.00 in0.0 mm 0.00 in0.0 mm 0.00 in0.0 mm
08:37 AM 71.5°F21.9°C 63.0°F17.2°C 75% 2.0 mph W3.2 kmh W 7.0 mph11.3 kmh 29.87 in1011.5 mb 0.00 in0.0 mm 0.00 in0.0 mm 0.00 in0.0 mm
08:42 AM 72.0°F22.2°C 63.4°F17.4°C 75% Calm Calm 7.0 mph11.3 kmh 29.88 in1011.9 mb 0.00 in0.0 mm 0.00 in0.0 mm 0.00 in0.0 mm
08:47 AM 72.5°F22.5°C 63.1°F17.3°C 73% 1.0 mph WSW1.6 kmh WSW 7.0 mph11.3 kmh 29.88 in1011.9 mb 0.00 in0.0 mm 0.00 in0.0 mm 0.00 in0.0 mm
08:52 AM 73.1°F22.8°C 63.7°F17.6°C 73% 1.0 mph WSW1.6 kmh WSW 7.0 mph11.3 kmh 29.88 in1011.9 mb 0.00 in0.0 mm 0.00 in0.0 mm 0.00 in0.0 mm
08:57 AM 73.7°F23.2°C 64.3°F17.9°C 73% 3.0 mph WSW4.8 kmh WSW 4.0 mph6.4 kmh 29.88 in1011.9 mb 0.00 in0.0 mm 0.00 in0.0 mm 0.00 in0.0 mm
09:02 AM 74.2°F23.4°C 64.3°F17.9°C 72% 3.0 mph WSW4.8 kmh WSW 4.0 mph6.4 kmh 29.88 in1011.9 mb 0.00 in0.0 mm 0.00 in0.0 mm 0.00 in0.0 mm
09:07 AM 74.6°F23.7°C 63.5°F17.5°C 69% 5.0 mph SSW8.0 kmh SSW 7.0 mph11.3 kmh 29.88 in1011.9 mb 0.00 in0.0 mm 0.00 in0.0 mm 0.00 in0.0 mm
09:12 AM 74.8°F23.8°C 63.7°F17.6°C 69% 3.0 mph SW4.8 kmh SW 8.0 mph12.9 kmh 29.88 in1011.9 mb 0.00 in0.0 mm 0.00 in0.0 mm 0.00 in0.0 mm
09:17 AM 74.9°F23.8°C 63.8°F17.7°C 69% 1.0 mph W1.6 kmh W 8.0 mph12.9 kmh 29.88 in1011.9 mb 0.00 in0.0 mm 0.00 in0.0 mm 0.00 in0.0 mm
09:22 AM 75.3°F24.1°C 65.0°F18.3°C 71% 3.0 mph W4.8 kmh W 8.0 mph12.9 kmh 29.89 in1012.2 mb 0.00 in0.0 mm 0.00 in0.0 mm 0.00 in0.0 mm
09:27 AM 75.7°F24.3°C 64.9°F18.3°C 70% 2.0 mph WSW3.2 kmh WSW 8.0 mph12.9 kmh 29.89 in1012.2 mb 0.00 in0.0 mm 0.00 in0.0 mm 0.00 in0.0 mm
09:32 AM 76.0°F24.4°C 64.4°F18.0°C 68% 4.0 mph WSW6.4 kmh WSW 7.0 mph11.3 kmh 29.89 in1012.2 mb 0.00 in0.0 mm 0.00 in0.0 mm 0.00 in0.0 mm
09:37 AM 76.3°F24.6°C 64.7°F18.2°C 68% 4.0 mph WSW6.4 kmh WSW 8.0 mph12.9 kmh 29.89 in1012.2 mb 0.00 in0.0 mm 0.00 in0.0 mm 0.00 in0.0 mm
09:42 AM 76.6°F24.8°C 64.5°F18.1°C 67% 4.0 mph WSW6.4 kmh WSW 8.0 mph12.9 kmh 29.89 in1012.2 mb 0.00 in0.0 mm 0.00 in0.0 mm 0.00 in0.0 mm
09:47 AM 76.9°F24.9°C 64.8°F18.2°C 67% Calm Calm 8.0 mph12.9 kmh 29.89 in1012.2 mb 0.00 in0.0 mm 0.00 in0.0 mm 0.00 in0.0 mm
09:52 AM 77.1°F25.1°C 64.5°F18.1°C 66% 1.0 mph W1.6 kmh W 8.0 mph12.9 kmh 29.88 in1011.9 mb 0.00 in0.0 mm 0.00 in0.0 mm 0.00 in0.0 mm
09:57 AM 77.3°F25.2°C 65.6°F18.7°C 68% 3.0 mph WSW4.8 kmh WSW 6.0 mph9.7 kmh 29.88 in1011.9 mb 0.00 in0.0 mm 0.00 in0.0 mm 0.00 in0.0 mm
10:02 AM 77.7°F25.4°C 66.0°F18.9°C 68% 3.0 mph W4.8 kmh W 11.0 mph17.7 kmh 29.88 in1011.9 mb 0.00 in0.0 mm 0.00 in0.0 mm 0.00 in0.0 mm
10:07 AM 77.8°F25.4°C 65.6°F18.7°C 67% 2.0 mph W3.2 kmh W 11.0 mph17.7 kmh 29.88 in1011.9 mb 0.00 in0.0 mm 0.00 in0.0 mm 0.00 in0.0 mm
10:12 AM 78.1°F25.6°C 65.9°F18.8°C 67% 1.0 mph WSW1.6 kmh WSW 11.0 mph17.7 kmh 29.88 in1011.9 mb 0.00 in0.0 mm 0.00 in0.0 mm 0.00 in0.0 mm
10:17 AM 78.3°F25.7°C 64.8°F18.2°C 64% Calm Calm 11.0 mph17.7 kmh 29.88 in1011.9 mb 0.00 in0.0 mm 0.00 in0.0 mm 0.00 in0.0 mm
10:22 AM 78.4°F25.8°C 64.4°F18.0°C 63% 5.0 mph S8.0 kmh S 7.0 mph11.3 kmh 29.87 in1011.5 mb 0.00 in0.0 mm 0.00 in0.0 mm 0.00 in0.0 mm
10:27 AM 78.6°F25.9°C 65.5°F18.6°C 65% 3.0 mph WSW4.8 kmh WSW 10.0 mph16.1 kmh 29.87 in1011.5 mb 0.00 in0.0 mm 0.00 in0.0 mm 0.00 in0.0 mm
10:32 AM 79.3°F26.3°C 67.5°F19.7°C 68% Calm Calm 10.0 mph16.1 kmh 29.87 in1011.5 mb 0.00 in0.0 mm 0.00 in0.0 mm 0.00 in0.0 mm
10:37 AM 79.9°F26.6°C 67.6°F19.8°C 67% 3.0 mph WSW4.8 kmh WSW 10.0 mph16.1 kmh 29.87 in1011.5 mb 0.00 in0.0 mm 0.00 in0.0 mm 0.00 in0.0 mm
10:42 AM 80.5°F26.9°C 65.4°F18.6°C 61% 2.0 mph WSW3.2 kmh WSW 10.0 mph16.1 kmh 29.87 in1011.5 mb 0.00 in0.0 mm 0.00 in0.0 mm 0.00 in0.0 mm
10:47 AM 80.7°F27.1°C 66.1°F18.9°C 62% 4.0 mph SW6.4 kmh SW 9.0 mph14.5 kmh 29.87 in1011.5 mb 0.00 in0.0 mm 0.00 in0.0 mm 0.00 in0.0 mm
10:52 AM 81.2°F27.3°C 67.0°F19.4°C 63% 4.0 mph SW6.4 kmh SW 9.0 mph14.5 kmh 29.86 in1011.2 mb 0.00 in0.0 mm 0.00 in0.0 mm 0.00 in0.0 mm
10:57 AM 81.3°F27.4°C 65.6°F18.7°C 60% 3.0 mph SW4.8 kmh SW 8.0 mph12.9 kmh 29.86 in1011.2 mb 0.00 in0.0 mm 0.00 in0.0 mm 0.00 in0.0 mm
11:02 AM 81.4°F27.4°C 66.2°F19.0°C 61% 3.0 mph SSW4.8 kmh SSW 8.0 mph12.9 kmh 29.86 in1011.2 mb 0.00 in0.0 mm 0.00 in0.0 mm 0.00 in0.0 mm
11:07 AM 81.5°F27.5°C 65.8°F18.8°C 60% 3.0 mph SW4.8 kmh SW 13.0 mph20.9 kmh 29.86 in1011.2 mb 0.00 in0.0 mm 0.00 in0.0 mm 0.00 in0.0 mm
11:12 AM 81.5°F27.5°C 65.8°F18.8°C 60% 11.0 mph S17.7 kmh S 13.0 mph20.9 kmh 29.86 in1011.2 mb 0.00 in0.0 mm 0.00 in0.0 mm 0.00 in0.0 mm
11:17 AM 81.5°F27.5°C 66.3°F19.1°C 61% 3.0 mph WSW4.8 kmh WSW 13.0 mph20.9 kmh 29.86 in1011.2 mb 0.00 in0.0 mm 0.00 in0.0 mm 0.00 in0.0 mm
11:22 AM 81.8°F27.7°C 67.1°F19.5°C 62% 4.0 mph WSW6.4 kmh WSW 13.0 mph20.9 kmh 29.86 in1011.2 mb 0.00 in0.0 mm 0.00 in0.0 mm 0.00 in0.0 mm
11:27 AM 82.2°F27.9°C 66.0°F18.9°C 59% 3.0 mph WSW4.8 kmh WSW 7.0 mph11.3 kmh 29.86 in1011.2 mb 0.00 in0.0 mm 0.00 in0.0 mm 0.00 in0.0 mm
11:32 AM 82.8°F28.2°C 69.5°F20.8°C 65% Calm Calm 7.0 mph11.3 kmh 29.86 in1011.2 mb 0.00 in0.0 mm 0.00 in0.0 mm 0.00 in0.0 mm
11:37 AM 83.1°F28.4°C 68.3°F20.2°C 62% 2.0 mph WSW3.2 kmh WSW 9.0 mph14.5 kmh 29.86 in1011.2 mb 0.00 in0.0 mm 0.00 in0.0 mm 0.00 in0.0 mm
11:42 AM 83.5°F28.6°C 69.2°F20.7°C 63% Calm Calm 9.0 mph14.5 kmh 29.86 in1011.2 mb 0.00 in0.0 mm 0.00 in0.0 mm 0.00 in0.0 mm
11:47 AM 83.7°F28.7°C 67.4°F19.7°C 59% 4.0 mph SW6.4 kmh SW 9.0 mph14.5 kmh 29.86 in1011.2 mb 0.00 in0.0 mm 0.00 in0.0 mm 0.00 in0.0 mm
11:52 AM 83.5°F28.6°C 67.2°F19.6°C 59% 5.0 mph SW8.0 kmh SW 11.0 mph17.7 kmh 29.85 in1010.8 mb 0.00 in0.0 mm 0.00 in0.0 mm 0.00 in0.0 mm
11:57 AM 83.7°F28.7°C 68.9°F20.5°C 62% 9.0 mph SSW14.5 kmh SSW 11.0 mph17.7 kmh 29.85 in1010.8 mb 0.00 in0.0 mm 0.00 in0.0 mm 0.00 in0.0 mm
12:02 PM 84.1°F28.9°C 68.8°F20.4°C 61% 3.0 mph WSW4.8 kmh WSW 11.0 mph17.7 kmh 29.85 in1010.8 mb 0.00 in0.0 mm 0.00 in0.0 mm 0.00 in0.0 mm
12:07 PM 84.1°F28.9°C 69.2°F20.7°C 62% Calm Calm 11.0 mph17.7 kmh 29.85 in1010.8 mb 0.00 in0.0 mm 0.00 in0.0 mm 0.00 in0.0 mm
12:12 PM 84.2°F29.0°C 67.8°F19.9°C 59% Calm Calm 7.0 mph11.3 kmh 29.86 in1011.2 mb 0.00 in0.0 mm 0.00 in0.0 mm 0.00 in0.0 mm
12:17 PM 84.5°F29.2°C 69.1°F20.6°C 61% 1.0 mph WSW1.6 kmh WSW 7.0 mph11.3 kmh 29.85 in1010.8 mb 0.00 in0.0 mm 0.00 in0.0 mm 0.00 in0.0 mm
12:22 PM 84.8°F29.3°C 70.4°F21.3°C 63% Calm Calm 9.0 mph14.5 kmh 29.85 in1010.8 mb 0.00 in0.0 mm 0.00 in0.0 mm 0.00 in0.0 mm
12:27 PM 84.7°F29.3°C 68.8°F20.4°C 60% Calm Calm 9.0 mph14.5 kmh 29.85 in1010.8 mb 0.00 in0.0 mm 0.00 in0.0 mm 0.00 in0.0 mm
12:32 PM 84.9°F29.4°C 71.4°F21.9°C 65% Calm Calm -- 29.85 in1010.8 mb 0.00 in0.0 mm 0.00 in0.0 mm 0.00 in0.0 mm
12:37 PM 85.4°F29.7°C 70.5°F21.4°C 62% 3.0 mph WSW4.8 kmh WSW 9.0 mph14.5 kmh 29.85 in1010.8 mb 0.00 in0.0 mm 0.00 in0.0 mm 0.00 in0.0 mm
12:42 PM 85.9°F29.9°C 69.4°F20.8°C 59% 3.0 mph WSW4.8 kmh WSW 11.0 mph17.7 kmh 29.85 in1010.8 mb 0.00 in0.0 mm 0.00 in0.0 mm 0.00 in0.0 mm
12:47 PM 85.9°F29.9°C 68.9°F20.5°C 58% 2.0 mph W3.2 kmh W 11.0 mph17.7 kmh 29.85 in1010.8 mb 0.00 in0.0 mm 0.00 in0.0 mm 0.00 in0.0 mm
12:52 PM 86.0°F30.0°C 69.5°F20.8°C 59% 5.0 mph WSW8.0 kmh WSW 11.0 mph17.7 kmh 29.85 in1010.8 mb 0.00 in0.0 mm 0.00 in0.0 mm 0.00 in0.0 mm
12:57 PM 86.2°F30.1°C 68.1°F20.1°C 56% Calm Calm 11.0 mph17.7 kmh 29.84 in1010.5 mb 0.00 in0.0 mm 0.00 in0.0 mm 0.00 in0.0 mm
01:02 PM 86.6°F30.3°C 70.6°F21.4°C 60% 1.0 mph WSW1.6 kmh WSW 10.0 mph16.1 kmh 29.84 in1010.5 mb 0.00 in0.0 mm 0.00 in0.0 mm 0.00 in0.0 mm
01:07 PM 86.9°F30.5°C 69.8°F21.0°C 58% Calm Calm 10.0 mph16.1 kmh 29.84 in1010.5 mb 0.00 in0.0 mm 0.00 in0.0 mm 0.00 in0.0 mm
01:12 PM 86.9°F30.5°C 69.3°F20.7°C 57% 5.0 mph WSW8.0 kmh WSW 12.0 mph19.3 kmh 29.84 in1010.5 mb 0.00 in0.0 mm 0.00 in0.0 mm 0.00 in0.0 mm
01:17 PM 87.3°F30.7°C 70.2°F21.2°C 58% 3.0 mph WSW4.8 kmh WSW 12.0 mph19.3 kmh 29.84 in1010.5 mb 0.00 in0.0 mm 0.00 in0.0 mm 0.00 in0.0 mm
01:22 PM 87.8°F31.0°C 70.7°F21.5°C 58% 8.0 mph SW12.9 kmh SW 12.0 mph19.3 kmh 29.84 in1010.5 mb 0.00 in0.0 mm 0.00 in0.0 mm 0.00 in0.0 mm
01:27 PM 88.1°F31.2°C 72.0°F22.2°C 60% 3.0 mph W4.8 kmh W 12.0 mph19.3 kmh 29.83 in1010.2 mb 0.00 in0.0 mm 0.00 in0.0 mm 0.00 in0.0 mm
01:32 PM 88.4°F31.3°C 67.9°F19.9°C 52% 6.0 mph WSW9.7 kmh WSW 12.0 mph19.3 kmh 29.83 in1010.2 mb 0.00 in0.0 mm 0.00 in0.0 mm 0.00 in0.0 mm
01:37 PM 88.1°F31.2°C 69.9°F21.1°C 56% Calm Calm 12.0 mph19.3 kmh 29.83 in1010.2 mb 0.00 in0.0 mm 0.00 in0.0 mm 0.00 in0.0 mm
01:42 PM 88.3°F31.3°C 68.4°F20.2°C 53% 3.0 mph WSW4.8 kmh WSW 12.0 mph19.3 kmh 29.83 in1010.2 mb 0.00 in0.0 mm 0.00 in0.0 mm 0.00 in0.0 mm
01:47 PM 88.2°F31.2°C 69.4°F20.8°C 55% 2.0 mph WSW3.2 kmh WSW 12.0 mph19.3 kmh 29.82 in1009.8 mb 0.00 in0.0 mm 0.00 in0.0 mm 0.00 in0.0 mm
01:52 PM 88.7°F31.5°C 69.3°F20.7°C 54% 8.0 mph WSW12.9 kmh WSW 11.0 mph17.7 kmh 29.82 in1009.8 mb 0.00 in0.0 mm 0.00 in0.0 mm 0.00 in0.0 mm
01:57 PM 88.7°F31.5°C 69.3°F20.7°C 54% 8.0 mph WSW12.9 kmh WSW 14.0 mph22.5 kmh 29.82 in1009.8 mb 0.00 in0.0 mm 0.00 in0.0 mm 0.00 in0.0 mm
02:02 PM 88.7°F31.5°C 69.3°F20.7°C 54% 9.0 mph SW14.5 kmh SW 15.0 mph24.1 kmh 29.82 in1009.8 mb 0.00 in0.0 mm 0.00 in0.0 mm 0.00 in0.0 mm
02:07 PM 88.9°F31.6°C 68.9°F20.5°C 53% 4.0 mph W6.4 kmh W 15.0 mph24.1 kmh 29.82 in1009.8 mb 0.00 in0.0 mm 0.00 in0.0 mm 0.00 in0.0 mm
02:12 PM 88.7°F31.5°C 70.4°F21.3°C 56% 4.0 mph WSW6.4 kmh WSW 15.0 mph24.1 kmh 29.82 in1009.8 mb 0.00 in0.0 mm 0.00 in0.0 mm 0.00 in0.0 mm
02:17 PM 88.8°F31.6°C 67.7°F19.8°C 51% 6.0 mph WSW9.7 kmh WSW 15.0 mph24.1 kmh 29.81 in1009.5 mb 0.00 in0.0 mm 0.00 in0.0 mm 0.00 in0.0 mm
02:22 PM 88.9°F31.6°C 69.5°F20.8°C 54% 3.0 mph WSW4.8 kmh WSW 12.0 mph19.3 kmh 29.81 in1009.5 mb 0.00 in0.0 mm 0.00 in0.0 mm 0.00 in0.0 mm
02:27 PM 89.0°F31.7°C 69.0°F20.6°C 53% 4.0 mph W6.4 kmh W 14.0 mph22.5 kmh 29.81 in1009.5 mb 0.00 in0.0 mm 0.00 in0.0 mm 0.00 in0.0 mm
02:32 PM 89.2°F31.8°C 69.8°F21.0°C 54% 4.0 mph SW6.4 kmh SW 14.0 mph22.5 kmh 29.81 in1009.5 mb 0.00 in0.0 mm 0.00 in0.0 mm 0.00 in0.0 mm
02:37 PM 89.5°F31.9°C 69.5°F20.8°C 53% 6.0 mph WSW9.7 kmh WSW 14.0 mph22.5 kmh 29.81 in1009.5 mb 0.00 in0.0 mm 0.00 in0.0 mm 0.00 in0.0 mm
02:42 PM 89.6°F32.0°C 67.8°F19.9°C 50% 7.0 mph WSW11.3 kmh WSW 20.0 mph32.2 kmh 29.80 in1009.1 mb 0.00 in0.0 mm 0.00 in0.0 mm 0.00 in0.0 mm
02:47 PM 89.5°F31.9°C 68.9°F20.5°C 52% 7.0 mph WSW11.3 kmh WSW 20.0 mph32.2 kmh 29.80 in1009.1 mb 0.00 in0.0 mm 0.00 in0.0 mm 0.00 in0.0 mm
02:52 PM 89.6°F32.0°C 68.4°F20.2°C 51% 8.0 mph WNW12.9 kmh WNW 20.0 mph32.2 kmh 29.80 in1009.1 mb 0.00 in0.0 mm 0.00 in0.0 mm 0.00 in0.0 mm
02:57 PM 89.7°F32.1°C 67.3°F19.6°C 49% 6.0 mph WSW9.7 kmh WSW 20.0 mph32.2 kmh 29.80 in1009.1 mb 0.00 in0.0 mm 0.00 in0.0 mm 0.00 in0.0 mm
03:02 PM 89.8°F32.1°C 66.8°F19.3°C 48% 9.0 mph SW14.5 kmh SW 20.0 mph32.2 kmh 29.79 in1008.8 mb 0.00 in0.0 mm 0.00 in0.0 mm 0.00 in0.0 mm
03:07 PM 89.8°F32.1°C 68.6°F20.3°C 51% 7.0 mph WSW11.3 kmh WSW 20.0 mph32.2 kmh 29.79 in1008.8 mb 0.00 in0.0 mm 0.00 in0.0 mm 0.00 in0.0 mm
03:12 PM 89.6°F32.0°C 66.6°F19.2°C 48% 8.0 mph SSW12.9 kmh SSW 20.0 mph32.2 kmh 29.79 in1008.8 mb 0.00 in0.0 mm 0.00 in0.0 mm 0.00 in0.0 mm
03:17 PM 89.5°F31.9°C 68.3°F20.2°C 51% 6.0 mph WNW9.7 kmh WNW 20.0 mph32.2 kmh 29.79 in1008.8 mb 0.00 in0.0 mm 0.00 in0.0 mm 0.00 in0.0 mm
03:22 PM 89.7°F32.1°C 67.3°F19.6°C 49% 9.0 mph SW14.5 kmh SW 19.0 mph30.6 kmh 29.79 in1008.8 mb 0.00 in0.0 mm 0.00 in0.0 mm 0.00 in0.0 mm
03:27 PM 89.4°F31.9°C 65.8°F18.8°C 47% 12.0 mph SW19.3 kmh SW 20.0 mph32.2 kmh 29.79 in1008.8 mb 0.00 in0.0 mm 0.00 in0.0 mm 0.00 in0.0 mm
03:32 PM 89.4°F31.9°C 66.4°F19.1°C 48% 11.0 mph S17.7 kmh S 20.0 mph32.2 kmh 29.79 in1008.8 mb 0.00 in0.0 mm 0.00 in0.0 mm 0.00 in0.0 mm
03:37 PM 89.5°F31.9°C 67.7°F19.8°C 50% 6.0 mph SW9.7 kmh SW 20.0 mph32.2 kmh 29.79 in1008.8 mb 0.00 in0.0 mm 0.00 in0.0 mm 0.00 in0.0 mm
03:42 PM 89.7°F32.1°C 67.3°F19.6°C 49% 8.0 mph SW12.9 kmh SW 20.0 mph32.2 kmh 29.79 in1008.8 mb 0.00 in0.0 mm 0.00 in0.0 mm 0.00 in0.0 mm
03:47 PM 89.6°F32.0°C 65.9°F18.8°C 47% 7.0 mph SW11.3 kmh SW 13.0 mph20.9 kmh 29.79 in1008.8 mb 0.00 in0.0 mm 0.00 in0.0 mm 0.00 in0.0 mm
03:52 PM 89.5°F31.9°C 66.5°F19.2°C 48% 5.0 mph SW8.0 kmh SW 15.0 mph24.1 kmh 29.78 in1008.5 mb 0.00 in0.0 mm 0.00 in0.0 mm 0.00 in0.0 mm
03:57 PM 89.7°F32.1°C 67.9°F19.9°C 50% 9.0 mph SW14.5 kmh SW 15.0 mph24.1 kmh 29.78 in1008.5 mb 0.00 in0.0 mm 0.00 in0.0 mm 0.00 in0.0 mm
04:02 PM 89.8°F32.1°C 65.5°F18.6°C 46% 7.0 mph SW11.3 kmh SW 22.0 mph35.4 kmh 29.77 in1008.1 mb 0.00 in0.0 mm 0.00 in0.0 mm 0.00 in0.0 mm
04:07 PM 89.4°F31.9°C 65.1°F18.4°C 46% 15.0 mph SSW24.1 kmh SSW 22.0 mph35.4 kmh 29.77 in1008.1 mb 0.00 in0.0 mm 0.00 in0.0 mm 0.00 in0.0 mm
04:12 PM 89.3°F31.8°C 66.3°F19.1°C 48% 7.0 mph WSW11.3 kmh WSW 22.0 mph35.4 kmh 29.77 in1008.1 mb 0.00 in0.0 mm 0.00 in0.0 mm 0.00 in0.0 mm
04:17 PM 89.1°F31.7°C 64.8°F18.2°C 46% 6.0 mph SSW9.7 kmh SSW 23.0 mph37.0 kmh 29.77 in1008.1 mb 0.00 in0.0 mm 0.00 in0.0 mm 0.00 in0.0 mm
04:22 PM 88.9°F31.6°C 65.9°F18.8°C 48% 9.0 mph WSW14.5 kmh WSW 23.0 mph37.0 kmh 29.77 in1008.1 mb 0.00 in0.0 mm 0.00 in0.0 mm 0.00 in0.0 mm
04:27 PM 89.0°F31.7°C 66.7°F19.3°C 49% 7.0 mph WSW11.3 kmh WSW 23.0 mph37.0 kmh 29.77 in1008.1 mb 0.00 in0.0 mm 0.00 in0.0 mm 0.00 in0.0 mm
04:32 PM 88.8°F31.6°C 64.6°F18.1°C 46% 5.0 mph SW8.0 kmh SW 24.0 mph38.6 kmh 29.77 in1008.1 mb 0.00 in0.0 mm 0.00 in0.0 mm 0.00 in0.0 mm
04:37 PM 88.6°F31.4°C 65.7°F18.7°C 48% 4.0 mph WSW6.4 kmh WSW 24.0 mph38.6 kmh 29.77 in1008.1 mb 0.00 in0.0 mm 0.00 in0.0 mm 0.00 in0.0 mm
04:42 PM 88.7°F31.5°C 65.8°F18.8°C 48% 9.0 mph WSW14.5 kmh WSW 24.0 mph38.6 kmh 29.77 in1008.1 mb 0.00 in0.0 mm 0.00 in0.0 mm 0.00 in0.0 mm
04:47 PM 88.6°F31.4°C 65.0°F18.3°C 47% 11.0 mph S17.7 kmh S 24.0 mph38.6 kmh 29.77 in1008.1 mb 0.00 in0.0 mm 0.00 in0.0 mm 0.00 in0.0 mm
04:52 PM 88.4°F31.3°C 64.2°F17.9°C 46% 6.0 mph SW9.7 kmh SW 18.0 mph29.0 kmh 29.77 in1008.1 mb 0.00 in0.0 mm 0.00 in0.0 mm 0.00 in0.0 mm
04:57 PM 88.0°F31.1°C 65.1°F18.4°C 48% 4.0 mph SW6.4 kmh SW 18.0 mph29.0 kmh 29.77 in1008.1 mb 0.00 in0.0 mm 0.00 in0.0 mm 0.00 in0.0 mm
05:02 PM 87.8°F31.0°C 64.3°F17.9°C 47% 6.0 mph S9.7 kmh S 14.0 mph22.5 kmh 29.77 in1008.1 mb 0.00 in0.0 mm 0.00 in0.0 mm 0.00 in0.0 mm
05:07 PM 87.7°F30.9°C 64.2°F17.9°C 47% 4.0 mph SW6.4 kmh SW 14.0 mph22.5 kmh 29.77 in1008.1 mb 0.00 in0.0 mm 0.00 in0.0 mm 0.00 in0.0 mm
05:12 PM 87.6°F30.9°C 63.5°F17.5°C 46% 2.0 mph SW3.2 kmh SW 21.0 mph33.8 kmh 29.77 in1008.1 mb 0.00 in0.0 mm 0.00 in0.0 mm 0.00 in0.0 mm
05:17 PM 87.1°F30.6°C 63.7°F17.6°C 47% 7.0 mph WSW11.3 kmh WSW 21.0 mph33.8 kmh 29.77 in1008.1 mb 0.00 in0.0 mm 0.00 in0.0 mm 0.00 in0.0 mm
05:22 PM 86.9°F30.5°C 63.5°F17.5°C 47% 7.0 mph SSW11.3 kmh SSW 21.0 mph33.8 kmh 29.77 in1008.1 mb 0.00 in0.0 mm 0.00 in0.0 mm 0.00 in0.0 mm
05:27 PM 86.6°F30.3°C 62.6°F17.0°C 46% 6.0 mph SW9.7 kmh SW 21.0 mph33.8 kmh 29.77 in1008.1 mb 0.00 in0.0 mm 0.00 in0.0 mm 0.00 in0.0 mm
05:32 PM 86.6°F30.3°C 63.2°F17.3°C 47% 7.0 mph WSW11.3 kmh WSW 19.0 mph30.6 kmh 29.77 in1008.1 mb 0.00 in0.0 mm 0.00 in0.0 mm 0.00 in0.0 mm
05:37 PM 86.5°F30.3°C 63.8°F17.7°C 48% 7.0 mph SSW11.3 kmh SSW 19.0 mph30.6 kmh 29.77 in1008.1 mb 0.00 in0.0 mm 0.00 in0.0 mm 0.00 in0.0 mm
05:42 PM 86.6°F30.3°C 63.9°F17.7°C 48% 6.0 mph SW9.7 kmh SW 17.0 mph27.4 kmh 29.77 in1008.1 mb 0.00 in0.0 mm 0.00 in0.0 mm 0.00 in0.0 mm
05:47 PM 86.6°F30.3°C 63.2°F17.3°C 47% 5.0 mph SW8.0 kmh SW 17.0 mph27.4 kmh 29.76 in1007.8 mb 0.00 in0.0 mm 0.00 in0.0 mm 0.00 in0.0 mm
05:52 PM 86.7°F30.4°C 64.0°F17.8°C 48% 4.0 mph SW6.4 kmh SW 22.0 mph35.4 kmh 29.76 in1007.8 mb 0.00 in0.0 mm 0.00 in0.0 mm 0.00 in0.0 mm
05:57 PM 86.4°F30.2°C 62.4°F16.9°C 46% 6.0 mph SW9.7 kmh SW 22.0 mph35.4 kmh 29.76 in1007.8 mb 0.00 in0.0 mm 0.00 in0.0 mm 0.00 in0.0 mm
06:02 PM 86.3°F30.2°C 62.3°F16.8°C 46% 5.0 mph WSW8.0 kmh WSW 22.0 mph35.4 kmh 29.76 in1007.8 mb 0.00 in0.0 mm 0.00 in0.0 mm 0.00 in0.0 mm
06:07 PM 86.1°F30.1°C 62.1°F16.7°C 46% 5.0 mph WSW8.0 kmh WSW 22.0 mph35.4 kmh 29.76 in1007.8 mb 0.00 in0.0 mm 0.00 in0.0 mm 0.00 in0.0 mm
06:12 PM 86.0°F30.0°C 63.3°F17.4°C 48% 4.0 mph SW6.4 kmh SW 18.0 mph29.0 kmh 29.76 in1007.8 mb 0.00 in0.0 mm 0.00 in0.0 mm 0.00 in0.0 mm
06:17 PM 86.0°F30.0°C 63.3°F17.4°C 48% 6.0 mph WSW9.7 kmh WSW 18.0 mph29.0 kmh 29.76 in1007.8 mb 0.00 in0.0 mm 0.00 in0.0 mm 0.00 in0.0 mm
06:22 PM 85.9°F29.9°C 62.6°F17.0°C 47% 9.0 mph SW14.5 kmh SW 18.0 mph29.0 kmh 29.75 in1007.5 mb 0.00 in0.0 mm 0.00 in0.0 mm 0.00 in0.0 mm
06:27 PM 85.6°F29.8°C 62.3°F16.8°C 47% 6.0 mph WSW9.7 kmh WSW 18.0 mph29.0 kmh 29.75 in1007.5 mb 0.00 in0.0 mm 0.00 in0.0 mm 0.00 in0.0 mm
06:32 PM 85.6°F29.8°C 63.0°F17.2°C 48% 4.0 mph SW6.4 kmh SW 14.0 mph22.5 kmh 29.74 in1007.1 mb 0.00 in0.0 mm 0.00 in0.0 mm 0.00 in0.0 mm
06:37 PM 85.6°F29.8°C 63.0°F17.2°C 48% 7.0 mph SSW11.3 kmh SSW 14.0 mph22.5 kmh 29.74 in1007.1 mb 0.00 in0.0 mm 0.00 in0.0 mm 0.00 in0.0 mm
06:42 PM 85.4°F29.7°C 62.8°F17.1°C 48% 8.0 mph SW12.9 kmh SW 14.0 mph22.5 kmh 29.74 in1007.1 mb 0.00 in0.0 mm 0.00 in0.0 mm 0.00 in0.0 mm
06:47 PM 85.3°F29.6°C 62.1°F16.7°C 47% 7.0 mph SSW11.3 kmh SSW 18.0 mph29.0 kmh 29.73 in1006.8 mb 0.00 in0.0 mm 0.00 in0.0 mm 0.00 in0.0 mm
06:52 PM 85.2°F29.6°C 62.6°F17.0°C 48% 15.0 mph SSW24.1 kmh SSW 18.0 mph29.0 kmh 29.73 in1006.8 mb 0.00 in0.0 mm 0.00 in0.0 mm 0.00 in0.0 mm
06:57 PM 85.3°F29.6°C 62.7°F17.1°C 48% 17.0 mph S27.4 kmh S 23.0 mph37.0 kmh 29.73 in1006.8 mb 0.00 in0.0 mm 0.00 in0.0 mm 0.00 in0.0 mm
07:02 PM 85.2°F29.6°C 62.6°F17.0°C 48% 5.0 mph SW8.0 kmh SW 23.0 mph37.0 kmh 29.72 in1006.4 mb 0.00 in0.0 mm 0.00 in0.0 mm 0.00 in0.0 mm
07:07 PM 85.1°F29.5°C 63.1°F17.3°C 49% 7.0 mph SSW11.3 kmh SSW 23.0 mph37.0 kmh 29.72 in1006.4 mb 0.00 in0.0 mm 0.00 in0.0 mm 0.00 in0.0 mm
07:12 PM 85.0°F29.4°C 63.0°F17.2°C 49% 7.0 mph SW11.3 kmh SW 23.0 mph37.0 kmh 29.72 in1006.4 mb 0.00 in0.0 mm 0.00 in0.0 mm 0.00 in0.0 mm
07:17 PM 84.9°F29.4°C 62.3°F16.8°C 48% 7.0 mph SW11.3 kmh SW 25.0 mph40.2 kmh 29.72 in1006.4 mb 0.00 in0.0 mm 0.00 in0.0 mm 0.00 in0.0 mm
07:22 PM 84.8°F29.3°C 62.8°F17.1°C 49% 13.0 mph SW20.9 kmh SW 25.0 mph40.2 kmh 29.73 in1006.8 mb 0.00 in0.0 mm 0.00 in0.0 mm 0.00 in0.0 mm
07:27 PM 84.7°F29.3°C 62.1°F16.7°C 48% 14.0 mph S22.5 kmh S 25.0 mph40.2 kmh 29.73 in1006.8 mb 0.00 in0.0 mm 0.00 in0.0 mm 0.00 in0.0 mm
07:32 PM 84.5°F29.2°C 62.6°F17.0°C 49% 8.0 mph SW12.9 kmh SW 25.0 mph40.2 kmh 29.73 in1006.8 mb 0.00 in0.0 mm 0.00 in0.0 mm 0.00 in0.0 mm
07:37 PM 84.4°F29.1°C 62.5°F16.9°C 49% 4.0 mph SW6.4 kmh SW 19.0 mph30.6 kmh 29.73 in1006.8 mb 0.00 in0.0 mm 0.00 in0.0 mm 0.00 in0.0 mm
07:42 PM 84.1°F28.9°C 62.8°F17.1°C 50% 5.0 mph SW8.0 kmh SW 19.0 mph30.6 kmh 29.74 in1007.1 mb 0.00 in0.0 mm 0.00 in0.0 mm 0.00 in0.0 mm
07:47 PM 83.9°F28.8°C 62.6°F17.0°C 50% 12.0 mph S19.3 kmh S 15.0 mph24.1 kmh 29.74 in1007.1 mb 0.00 in0.0 mm 0.00 in0.0 mm 0.00 in0.0 mm
07:52 PM 83.8°F28.8°C 62.5°F16.9°C 50% 4.0 mph SW6.4 kmh SW 16.0 mph25.7 kmh 29.73 in1006.8 mb 0.00 in0.0 mm 0.00 in0.0 mm 0.00 in0.0 mm
07:57 PM 83.7°F28.7°C 62.4°F16.9°C 50% 7.0 mph SSW11.3 kmh SSW 19.0 mph30.6 kmh 29.73 in1006.8 mb 0.00 in0.0 mm 0.00 in0.0 mm 0.00 in0.0 mm
08:02 PM 83.5°F28.6°C 62.3°F16.8°C 50% 11.0 mph S17.7 kmh S 19.0 mph30.6 kmh 29.73 in1006.8 mb 0.00 in0.0 mm 0.00 in0.0 mm 0.00 in0.0 mm
08:07 PM 83.2°F28.4°C 62.0°F16.7°C 50% 8.0 mph SW12.9 kmh SW 19.0 mph30.6 kmh 29.73 in1006.8 mb 0.00 in0.0 mm 0.00 in0.0 mm 0.00 in0.0 mm
08:12 PM 83.0°F28.3°C 62.4°F16.9°C 51% 6.0 mph SSW9.7 kmh SSW 19.0 mph30.6 kmh 29.73 in1006.8 mb 0.00 in0.0 mm 0.00 in0.0 mm 0.00 in0.0 mm
08:17 PM 82.8°F28.2°C 62.2°F16.8°C 51% 8.0 mph S12.9 kmh S 17.0 mph27.4 kmh 29.73 in1006.8 mb 0.00 in0.0 mm 0.00 in0.0 mm 0.00 in0.0 mm
08:22 PM 82.5°F28.1°C 61.9°F16.6°C 51% 7.0 mph S11.3 kmh S 17.0 mph27.4 kmh 29.73 in1006.8 mb 0.00 in0.0 mm 0.00 in0.0 mm 0.00 in0.0 mm
08:27 PM 82.3°F27.9°C 61.7°F16.5°C 51% 10.0 mph S16.1 kmh S 17.0 mph27.4 kmh 29.73 in1006.8 mb 0.00 in0.0 mm 0.00 in0.0 mm 0.00 in0.0 mm
08:32 PM 82.1°F27.8°C 61.0°F16.1°C 50% 11.0 mph SSW17.7 kmh SSW 17.0 mph27.4 kmh 29.73 in1006.8 mb 0.00 in0.0 mm 0.00 in0.0 mm 0.00 in0.0 mm
08:37 PM 81.9°F27.7°C 61.4°F16.3°C 51% 4.0 mph SW6.4 kmh SW 17.0 mph27.4 kmh 29.73 in1006.8 mb 0.00 in0.0 mm 0.00 in0.0 mm 0.00 in0.0 mm
08:42 PM 81.7°F27.6°C 61.2°F16.2°C 51% 6.0 mph SW9.7 kmh SW 17.0 mph27.4 kmh 29.74 in1007.1 mb 0.00 in0.0 mm 0.00 in0.0 mm 0.00 in0.0 mm
08:47 PM 81.5°F27.5°C 61.0°F16.1°C 51% 11.0 mph SW17.7 kmh SW 17.0 mph27.4 kmh 29.74 in1007.1 mb 0.00 in0.0 mm 0.00 in0.0 mm 0.00 in0.0 mm
08:52 PM 81.4°F27.4°C 60.9°F16.1°C 51% 7.0 mph SW11.3 kmh SW 17.0 mph27.4 kmh 29.73 in1006.8 mb 0.00 in0.0 mm 0.00 in0.0 mm 0.00 in0.0 mm
08:57 PM 81.2°F27.3°C 60.7°F15.9°C 51% 6.0 mph SSW9.7 kmh SSW 17.0 mph27.4 kmh 29.73 in1006.8 mb 0.00 in0.0 mm 0.00 in0.0 mm 0.00 in0.0 mm
09:02 PM 81.0°F27.2°C 61.1°F16.2°C 52% 10.0 mph S16.1 kmh S 17.0 mph27.4 kmh 29.73 in1006.8 mb 0.00 in0.0 mm 0.00 in0.0 mm 0.00 in0.0 mm
09:07 PM 80.7°F27.1°C 61.4°F16.3°C 53% 11.0 mph S17.7 kmh S 13.0 mph20.9 kmh 29.73 in1006.8 mb 0.00 in0.0 mm 0.00 in0.0 mm 0.00 in0.0 mm
09:12 PM 80.5°F26.9°C 61.2°F16.2°C 53% 6.0 mph SSW9.7 kmh SSW 17.0 mph27.4 kmh 29.73 in1006.8 mb 0.00 in0.0 mm 0.00 in0.0 mm 0.00 in0.0 mm
09:17 PM 80.3°F26.8°C 61.0°F16.1°C 53% 11.0 mph SSW17.7 kmh SSW 17.0 mph27.4 kmh 29.73 in1006.8 mb 0.00 in0.0 mm 0.00 in0.0 mm 0.00 in0.0 mm
09:22 PM 80.1°F26.7°C 61.4°F16.3°C 54% 13.0 mph SSW20.9 kmh SSW 17.0 mph27.4 kmh 29.73 in1006.8 mb 0.00 in0.0 mm 0.00 in0.0 mm 0.00 in0.0 mm
09:27 PM 80.1°F26.7°C 61.4°F16.3°C 54% 4.0 mph SW6.4 kmh SW 20.0 mph32.2 kmh 29.73 in1006.8 mb 0.00 in0.0 mm 0.00 in0.0 mm 0.00 in0.0 mm
09:32 PM 80.0°F26.7°C 61.3°F16.3°C 54% 15.0 mph S24.1 kmh S 20.0 mph32.2 kmh 29.73 in1006.8 mb 0.00 in0.0 mm 0.00 in0.0 mm 0.00 in0.0 mm
09:37 PM 79.9°F26.6°C 61.2°F16.2°C 54% 7.0 mph SSW11.3 kmh SSW 20.0 mph32.2 kmh 29.72 in1006.4 mb 0.00 in0.0 mm 0.00 in0.0 mm 0.00 in0.0 mm
09:42 PM 79.7°F26.5°C 61.0°F16.1°C 54% 9.0 mph SSW14.5 kmh SSW 20.0 mph32.2 kmh 29.72 in1006.4 mb 0.00 in0.0 mm 0.00 in0.0 mm 0.00 in0.0 mm
09:47 PM 79.5°F26.4°C 60.9°F16.1°C 54% 13.0 mph SW20.9 kmh SW 21.0 mph33.8 kmh 29.72 in1006.4 mb 0.00 in0.0 mm 0.00 in0.0 mm 0.00 in0.0 mm
09:52 PM 79.4°F26.3°C 60.8°F16.0°C 54% 18.0 mph S29.0 kmh S 21.0 mph33.8 kmh 29.72 in1006.4 mb 0.00 in0.0 mm 0.00 in0.0 mm 0.00 in0.0 mm
09:57 PM 79.2°F26.2°C 60.6°F15.9°C 54% 13.0 mph S20.9 kmh S 22.0 mph35.4 kmh 29.72 in1006.4 mb 0.00 in0.0 mm 0.00 in0.0 mm 0.00 in0.0 mm
10:02 PM 79.1°F26.2°C 60.5°F15.8°C 54% 7.0 mph SSW11.3 kmh SSW 22.0 mph35.4 kmh 29.71 in1006.1 mb 0.00 in0.0 mm 0.00 in0.0 mm 0.00 in0.0 mm
10:07 PM 79.0°F26.1°C 60.9°F16.1°C 55% 11.0 mph S17.7 kmh S 22.0 mph35.4 kmh 29.71 in1006.1 mb 0.00 in0.0 mm 0.00 in0.0 mm 0.00 in0.0 mm
10:12 PM 78.8°F26.0°C 60.8°F16.0°C 55% 4.0 mph SW6.4 kmh SW 22.0 mph35.4 kmh 29.72 in1006.4 mb 0.00 in0.0 mm 0.00 in0.0 mm 0.00 in0.0 mm
10:17 PM 78.6°F25.9°C 60.6°F15.9°C 55% 7.0 mph S11.3 kmh S 20.0 mph32.2 kmh 29.71 in1006.1 mb 0.00 in0.0 mm 0.00 in0.0 mm 0.00 in0.0 mm
10:22 PM 78.5°F25.8°C 60.5°F15.8°C 55% 13.0 mph SW20.9 kmh SW 22.0 mph35.4 kmh 29.71 in1006.1 mb 0.00 in0.0 mm 0.00 in0.0 mm 0.00 in0.0 mm
10:27 PM 78.4°F25.8°C 60.4°F15.8°C 55% 16.0 mph S25.7 kmh S 22.0 mph35.4 kmh 29.71 in1006.1 mb 0.00 in0.0 mm 0.00 in0.0 mm 0.00 in0.0 mm
10:32 PM 78.3°F25.7°C 60.3°F15.7°C 55% 8.0 mph SSW12.9 kmh SSW 22.0 mph35.4 kmh 29.71 in1006.1 mb 0.00 in0.0 mm 0.00 in0.0 mm 0.00 in0.0 mm
10:37 PM 78.1°F25.6°C 60.6°F15.9°C 56% 8.0 mph SSE12.9 kmh SSE 22.0 mph35.4 kmh 29.71 in1006.1 mb 0.00 in0.0 mm 0.00 in0.0 mm 0.00 in0.0 mm
10:42 PM 77.8°F25.4°C 60.4°F15.8°C 56% 15.0 mph S24.1 kmh S 18.0 mph29.0 kmh 29.70 in1005.8 mb 0.00 in0.0 mm 0.00 in0.0 mm 0.00 in0.0 mm
10:47 PM 77.5°F25.3°C 60.6°F15.9°C 57% 8.0 mph WSW12.9 kmh WSW 18.0 mph29.0 kmh 29.70 in1005.8 mb 0.00 in0.0 mm 0.00 in0.0 mm 0.00 in0.0 mm
10:52 PM 77.3°F25.2°C 60.9°F16.1°C 58% 10.0 mph S16.1 kmh S 19.0 mph30.6 kmh 29.71 in1006.1 mb 0.00 in0.0 mm 0.00 in0.0 mm 0.00 in0.0 mm
10:57 PM 77.2°F25.1°C 60.8°F16.0°C 58% 14.0 mph SSW22.5 kmh SSW 19.0 mph30.6 kmh 29.70 in1005.8 mb 0.00 in0.0 mm 0.00 in0.0 mm 0.00 in0.0 mm
11:02 PM 77.2°F25.1°C 60.8°F16.0°C 58% 10.0 mph S16.1 kmh S 19.0 mph30.6 kmh 29.70 in1005.8 mb 0.00 in0.0 mm 0.00 in0.0 mm 0.00 in0.0 mm
11:07 PM 77.2°F25.1°C 60.8°F16.0°C 58% 13.0 mph SSW20.9 kmh SSW 23.0 mph37.0 kmh 29.70 in1005.8 mb 0.00 in0.0 mm 0.00 in0.0 mm 0.00 in0.0 mm
11:12 PM 77.2°F25.1°C 60.8°F16.0°C 58% 15.0 mph S24.1 kmh S 27.0 mph43.5 kmh 29.70 in1005.8 mb 0.00 in0.0 mm 0.00 in0.0 mm 0.00 in0.0 mm
11:17 PM 77.2°F25.1°C 60.8°F16.0°C 58% 23.0 mph S37.0 kmh S 27.0 mph43.5 kmh 29.70 in1005.8 mb 0.00 in0.0 mm 0.00 in0.0 mm 0.00 in0.0 mm
11:22 PM 77.2°F25.1°C 60.8°F16.0°C 58% 8.0 mph SSW12.9 kmh SSW 27.0 mph43.5 kmh 29.69 in1005.4 mb 0.00 in0.0 mm 0.00 in0.0 mm 0.00 in0.0 mm
11:27 PM 77.2°F25.1°C 60.8°F16.0°C 58% 8.0 mph SW12.9 kmh SW 27.0 mph43.5 kmh 29.69 in1005.4 mb 0.00 in0.0 mm 0.00 in0.0 mm 0.00 in0.0 mm
11:32 PM 77.1°F25.1°C 60.7°F15.9°C 58% 7.0 mph SSW11.3 kmh SSW 24.0 mph38.6 kmh 29.69 in1005.4 mb 0.00 in0.0 mm 0.00 in0.0 mm 0.00 in0.0 mm
11:37 PM 77.0°F25.0°C 60.6°F15.9°C 58% 10.0 mph SW16.1 kmh SW 24.0 mph38.6 kmh 29.70 in1005.8 mb 0.00 in0.0 mm 0.00 in0.0 mm 0.00 in0.0 mm
11:42 PM 76.9°F24.9°C 61.0°F16.1°C 59% 8.0 mph S12.9 kmh S 21.0 mph33.8 kmh 29.70 in1005.8 mb 0.00 in0.0 mm 0.00 in0.0 mm 0.00 in0.0 mm
11:47 PM 76.7°F24.8°C 60.9°F16.1°C 59% 10.0 mph SW16.1 kmh SW 21.0 mph33.8 kmh 29.69 in1005.4 mb 0.00 in0.0 mm 0.00 in0.0 mm 0.00 in0.0 mm
11:52 PM 76.6°F24.8°C 60.3°F15.7°C 58% 9.0 mph SSW14.5 kmh SSW 22.0 mph35.4 kmh 29.70 in1005.8 mb 0.00 in0.0 mm 0.00 in0.0 mm 0.00 in0.0 mm
11:57 PM 76.6°F24.8°C 60.8°F16.0°C 59% 5.0 mph WSW8.0 kmh WSW 22.0 mph35.4 kmh 29.70 in1005.8 mb 0.00 in0.0 mm 0.00 in0.0 mm 0.00 in0.0 mm